Pinegrove, Mississippi
Current Conditions -  °F | °C
As of 10:15 AM on Sunday 25 Jan 2015 (Local Time) from KUOX Reporting Station
Clear Clear  
Wind Chill: 50°   Ceiling: Unl
Heat Index: 50°   Visibility: 10mi
Dew Point: 36°   Wind: 12mph
Humidity: 58%   Direction: 220°SW
Pressure: 29.77"   Gusts: NA
Location:  34.6392°N, 89.1796°W
Report Text: KUOX 251615Z AUTO 22010KT 10SM CLR 10/02 A2977 RMK AO2 PWINO PNO
Loading
Personal Weather Stations






























Interactive Weather Map New forecast layout! Learn more

10-Day Weather Forecast

Advertisements
Track Severe Weather on mobile